Time;durP1;ratioP1;P1;durP2;ratioP2;P2;SDS_P1;SDS_P2;PMS_P1;PMS_P2;Temp;Humidity;BMP_temperature;BMP_pressure;BME280_temperature;BME280_humidity;BME280_pressure;Samples;Min_cycle;Max_cycle;Signal;HPM_P1;HPM_P2
2021/06/09 00:00:58;;;;;;;8.94;4.93;;;;;;;17.34;77.09;98834.00;354163;108;1961814;-71
2021/06/09 00:02:03;;;;;;;8.39;4.98;;;;;;;17.32;76.58;98835.36;356739;108;1962017;-72
2021/06/09 00:03:15;;;;;;;8.55;5.25;;;;;;;17.43;76.33;98830.73;396337;104;1986068;-71
2021/06/09 00:04:21;;;;;;;7.97;4.73;;;;;;;17.33;76.53;98829.64;372989;106;1962084;-72
2021/06/09 00:05:33;;;;;;;8.19;4.79;;;;;;;17.44;75.56;98821.44;387424;106;1989042;-73
2021/06/09 00:06:39;;;;;;;8.08;4.48;;;;;;;17.33;75.70;98837.83;367896;108;1961903;-72
2021/06/09 00:08:03;;;;;;;8.92;4.27;;;;;;;17.28;75.38;98835.09;364285;109;1963067;-73
2021/06/09 00:09:15;;;;;;;5.92;3.87;;;;;;;17.38;74.60;98825.27;396274;104;1987065;-72
2021/06/09 00:10:22;;;;;;;7.51;4.44;;;;;;;17.25;74.86;98827.45;318135;107;2562066;-72
2021/06/09 00:11:34;;;;;;;8.42;4.96;;;;;;;17.35;74.78;98816.52;388278;104;2071939;-72
2021/06/09 00:12:39;;;;;;;7.47;4.63;;;;;;;17.27;74.99;98822.52;370647;107;1964001;-73
2021/06/09 00:13:52;;;;;;;7.65;4.71;;;;;;;17.36;75.10;98820.91;406753;101;1985981;-72
2021/06/09 00:14:57;;;;;;;8.88;4.74;;;;;;;17.25;75.40;98821.14;391646;102;1963035;-72
2021/06/09 00:16:23;;;;;;;8.74;4.15;;;;;;;17.25;75.23;98835.63;389536;103;1962124;-71
2021/06/09 00:17:29;;;;;;;6.52;4.50;;;;;;;17.24;75.42;98830.44;346484;103;2863025;-72
2021/06/09 00:18:42;;;;;;;10.12;5.64;;;;;;;17.37;74.94;98829.91;393746;104;1962041;-73
2021/06/09 00:19:47;;;;;;;7.41;4.10;;;;;;;17.29;74.31;98830.45;368296;108;1964448;-72
2021/06/09 00:20:54;;;;;;;6.43;4.66;;;;;;;17.27;73.99;98830.70;374639;105;1961900;-72
2021/06/09 00:21:59;;;;;;;8.16;3.83;;;;;;;17.28;74.83;98835.09;376740;105;1964258;-71
2021/06/09 00:23:16;;;;;;;6.97;4.48;;;;;;;17.40;73.08;98825.81;343546;106;2724020;-73
2021/06/09 00:24:20;;;;;;;7.63;4.52;;;;;;;17.28;74.24;98832.36;367331;109;1970065;-73
2021/06/09 00:25:33;;;;;;;7.54;4.26;;;;;;;17.39;74.30;98826.92;334497;103;2388030;-72
2021/06/09 00:26:40;;;;;;;6.92;4.30;;;;;;;17.25;73.29;98832.91;376264;105;1961956;-72
2021/06/09 00:27:56;;;;;;;7.25;3.97;;;;;;;17.36;74.33;98828.28;393690;103;1985994;-72
2021/06/09 00:29:01;;;;;;;6.08;3.88;;;;;;;17.26;73.47;98834.53;376757;105;1961858;-72
2021/06/09 00:30:29;;;;;;;7.36;3.80;;;;;;;17.26;72.46;98831.80;309112;105;2382033;-72
2021/06/09 00:32:03;;;;;;;7.89;4.61;;;;;;;17.36;74.49;98831.83;396495;103;1986053;-73
2021/06/09 00:33:09;;;;;;;7.13;3.72;;;;;;;17.26;74.44;98829.08;371071;107;1962013;-72
2021/06/09 00:34:15;;;;;;;7.12;4.02;;;;;;;17.27;73.39;98822.52;373530;107;1962065;-72
2021/06/09 00:35:28;;;;;;;7.03;3.99;;;;;;;17.40;74.03;98820.36;330386;106;2286018;-74
2021/06/09 00:36:33;;;;;;;8.32;4.43;;;;;;;17.30;73.01;98813.78;363785;108;1969946;-72
2021/06/09 00:37:39;;;;;;;7.18;4.06;;;;;;;17.31;73.50;98820.89;368239;107;1962008;-72
2021/06/09 00:38:51;;;;;;;6.38;3.52;;;;;;;17.42;73.88;98813.53;401895;101;1986988;-72
2021/06/09 00:39:56;;;;;;;7.15;4.14;;;;;;;17.30;73.92;98813.78;381393;105;1962009;-71
2021/06/09 00:41:28;;;;;;;8.63;4.21;;;;;;;17.43;74.61;98815.16;388207;105;1985989;-72
2021/06/09 00:42:34;;;;;;;5.93;3.78;;;;;;;17.34;74.26;98811.34;365248;108;1963030;-72
2021/06/09 00:43:58;;;;;;;7.73;3.88;;;;;;;17.35;73.49;98808.33;351674;113;1962253;-72
2021/06/09 00:45:14;;;;;;;6.13;4.04;;;;;;;17.46;74.20;98805.61;395828;104;1986983;-72
2021/06/09 00:46:22;;;;;;;8.35;4.07;;;;;;;17.38;73.60;98808.88;341377;106;2874999;-72
2021/06/09 00:47:34;;;;;;;7.22;3.75;;;;;;;17.48;73.75;98803.44;382148;106;1965023;-72
2021/06/09 00:48:42;;;;;;;6.00;3.72;;;;;;;17.36;73.77;98809.98;365821;109;1962060;-71
2021/06/09 00:50:07;;;;;;;5.24;3.47;;;;;;;17.36;73.27;98807.25;364432;109;1962111;-73
2021/06/09 00:51:19;;;;;;;6.81;3.78;;;;;;;17.47;72.32;98810.00;351737;106;2147031;-73
2021/06/09 00:52:29;;;;;;;6.71;3.59;;;;;;;17.37;72.63;98808.07;305108;109;2345901;-72
2021/06/09 00:53:47;;;;;;;5.44;3.32;;;;;;;17.49;70.75;98807.79;394454;104;1986022;-72
2021/06/09 00:54:49;;;;;;;6.38;3.27;;;;;;;17.40;71.92;98806.70;376248;106;1961991;-72
2021/06/09 00:56:14;;;;;;;6.37;3.69;;;;;;;17.40;72.00;98809.44;375194;106;1961954;-73
2021/06/09 00:57:26;;;;;;;4.91;3.57;;;;;;;17.52;72.08;98807.27;352051;104;2691016;-73
2021/06/09 00:58:32;;;;;;;6.16;3.54;;;;;;;17.44;71.38;98805.06;341443;106;2059961;-73
2021/06/09 01:00:08;;;;;;;5.35;3.49;;;;;;;17.54;71.43;98805.91;415953;99;1987013;-72
2021/06/09 01:01:40;;;;;;;6.46;3.74;;;;;;;17.50;70.21;98803.98;397533;103;1985895;-72
2021/06/09 01:02:45;;;;;;;8.33;3.57;;;;;;;17.41;70.65;98803.72;377189;105;1961809;-72
2021/06/09 01:03:51;;;;;;;4.67;2.95;;;;;;;17.40;70.11;98802.06;374066;105;1960724;-72
2021/06/09 01:04:57;;;;;;;8.58;3.68;;;;;;;17.43;70.02;98797.97;378502;105;1960886;-72
2021/06/09 01:06:09;;;;;;;6.54;3.12;;;;;;;17.56;70.05;98797.42;394789;104;1987045;-72
2021/06/09 01:07:16;;;;;;;6.44;3.63;;;;;;;17.44;70.05;98794.14;376994;105;1961965;-72
2021/06/09 01:08:22;;;;;;;4.81;2.99;;;;;;;17.45;69.66;98804.80;350712;107;1961977;-72
2021/06/09 01:09:34;;;;;;;5.24;3.50;;;;;;;17.57;69.13;98807.25;391267;104;2072891;-73
2021/06/09 01:10:41;;;;;;;6.50;3.27;;;;;;;17.47;69.91;98802.63;375488;106;1961903;-73
2021/06/09 01:11:48;;;;;;;6.25;4.06;;;;;;;17.44;69.73;98802.33;375329;106;1962032;-72
2021/06/09 01:13:23;;;;;;;8.04;4.22;;;;;;;17.47;69.98;98793.62;410888;99;2071949;-73
2021/06/09 01:14:35;;;;;;;5.63;3.69;;;;;;;17.40;70.26;98802.06;396260;104;1986893;-74
2021/06/09 01:15:41;;;;;;;6.68;4.05;;;;;;;17.17;69.89;98799.84;378680;105;1963049;-73
2021/06/09 01:16:49;;;;;;;7.51;4.36;;;;;;;17.08;70.15;98810.48;373537;106;1961976;-72
2021/06/09 01:18:04;;;;;;;5.61;3.97;;;;;;;17.09;70.80;98802.03;380386;108;1996053;-72
2021/06/09 01:19:21;;;;;;;7.28;4.64;;;;;;;17.02;70.90;98803.38;395498;104;1986817;-72
2021/06/09 01:20:45;;;;;;;7.71;4.12;;;;;;;16.86;70.29;98808.78;374935;107;1962045;-72
2021/06/09 01:21:51;;;;;;;7.49;3.95;;;;;;;16.76;71.49;98802.45;374299;107;1961993;-72
2021/06/09 01:23:04;;;;;;;7.57;3.86;;;;;;;16.82;71.17;98806.86;392964;104;1987053;-72
2021/06/09 01:24:09;;;;;;;7.02;3.67;;;;;;;16.66;71.28;98804.03;376908;107;1963031;-73
2021/06/09 01:25:23;;;;;;;6.01;3.77;;;;;;;16.78;71.46;98806.58;377917;108;2069917;-72
2021/06/09 01:26:31;;;;;;;5.40;3.48;;;;;;;16.69;71.49;98811.67;359996;111;1964060;-72
2021/06/09 01:27:55;;;;;;;5.59;3.75;;;;;;;16.69;71.63;98805.41;356291;112;1960881;-73
2021/06/09 01:29:09;;;;;;;6.59;4.01;;;;;;;16.82;72.00;98820.48;350109;105;2591058;-73
2021/06/09 01:30:15;;;;;;;6.13;3.82;;;;;;;16.71;71.46;98817.69;369032;107;1962066;-73
2021/06/09 01:31:22;;;;;;;5.92;3.69;;;;;;;16.72;71.62;98821.23;370094;107;1960769;-73
2021/06/09 01:32:28;;;;;;;5.17;3.59;;;;;;;16.73;71.25;98817.44;362559;107;2849853;-72
2021/06/09 01:33:34;;;;;;;5.76;3.71;;;;;;;16.75;71.23;98817.16;328907;109;2703826;-72
2021/06/09 01:34:46;;;;;;;6.31;3.78;;;;;;;16.87;71.59;98823.23;394696;104;2070807;-72
2021/06/09 01:35:53;;;;;;;4.77;3.09;;;;;;;16.77;71.95;98821.28;380019;103;1960712;-72
2021/06/09 01:37:00;;;;;;;5.77;3.84;;;;;;;16.79;72.15;98823.76;378903;105;1960860;-72
2021/06/09 01:38:07;;;;;;;5.77;3.66;;;;;;;16.79;72.17;98819.12;303275;106;2417761;-72
2021/06/09 01:39:19;;;;;;;6.88;4.18;;;;;;;16.92;72.70;98820.53;397065;104;1984799;-71
2021/06/09 01:40:27;;;;;;;6.12;3.90;;;;;;;16.87;72.36;98826.78;376537;106;1960789;-72
2021/06/09 01:41:33;;;;;;;5.36;3.76;;;;;;;16.90;72.22;98826.23;364889;104;1960763;-74
2021/06/09 01:42:39;;;;;;;6.24;3.99;;;;;;;16.91;72.48;98827.90;365750;109;1962756;-72
2021/06/09 01:43:54;;;;;;;5.38;3.31;;;;;;;17.04;71.73;98815.66;341925;105;2464784;-72
2021/06/09 01:45:00;;;;;;;7.00;4.31;;;;;;;16.96;72.10;98820.80;367710;108;1960823;-72
2021/06/09 01:46:15;;;;;;;6.61;4.12;;;;;;;17.09;72.06;98828.48;394812;103;1960868;-74
2021/06/09 01:47:22;;;;;;;6.84;3.85;;;;;;;16.99;71.77;98829.29;370165;107;1967788;-74
2021/06/09 01:48:45;;;;;;;6.96;4.02;;;;;;;17.00;72.23;98825.46;368140;107;1960910;-72
2021/06/09 01:49:51;;;;;;;7.32;4.04;;;;;;;17.00;72.04;98820.00;367846;109;1960876;-73
2021/06/09 01:51:03;;;;;;;6.89;4.68;;;;;;;17.14;71.77;98825.77;393240;103;2071902;-72
2021/06/09 01:52:09;;;;;;;5.38;3.83;;;;;;;17.05;71.89;98825.48;370891;107;1960858;-73
2021/06/09 01:53:42;;;;;;;8.80;4.69;;;;;;;17.13;71.84;98826.86;394585;103;1961069;-74
2021/06/09 01:54:48;;;;;;;7.26;4.32;;;;;;;17.02;72.31;98825.20;379445;106;1969863;-72
2021/06/09 01:56:12;;;;;;;6.75;4.26;;;;;;;17.01;72.26;98829.00;358682;106;2838743;-73
2021/06/09 01:57:18;;;;;;;11.25;5.24;;;;;;;17.02;72.17;98828.75;340478;107;2009911;-73
2021/06/09 01:58:30;;;;;;;7.36;5.06;;;;;;;17.13;72.40;98824.95;392834;99;2070656;-73
2021/06/09 01:59:36;;;;;;;8.79;4.63;;;;;;;16.98;71.93;98827.63;375091;106;1960805;-72
2021/06/09 02:00:45;;;;;;;7.79;5.13;;;;;;;16.97;72.62;98833.38;376411;105;1960754;-72
2021/06/09 02:01:57;;;;;;;6.98;4.82;;;;;;;17.08;72.58;98830.39;396234;104;1984805;-73
2021/06/09 02:03:03;;;;;;;6.52;4.69;;;;;;;16.99;72.36;98831.17;375806;105;1960701;-73
2021/06/09 02:04:17;;;;;;;7.88;4.73;;;;;;;17.10;72.09;98832.86;350155;103;2591001;-73
2021/06/09 02:05:22;;;;;;;8.09;4.94;;;;;;;17.01;71.96;98834.46;360301;110;1962043;-72
2021/06/09 02:06:46;;;;;;;7.93;4.71;;;;;;;16.99;72.04;98837.48;311743;105;2510982;-72
2021/06/09 02:08:01;;;;;;;11.02;5.43;;;;;;;17.08;72.10;98843.22;392599;104;2070801;-73
2021/06/09 02:09:07;;;;;;;9.04;4.92;;;;;;;17.00;71.95;98838.29;376502;106;1960852;-73
2021/06/09 02:10:16;;;;;;;10.26;5.26;;;;;;;16.87;72.04;98831.42;357343;105;1960731;-71
2021/06/09 02:11:28;;;;;;;7.77;5.37;;;;;;;17.07;72.12;98841.59;378107;104;1984775;-74
2021/06/09 02:12:34;;;;;;;8.09;5.27;;;;;;;16.96;72.04;98837.17;338711;107;1980822;-73
2021/06/09 02:13:46;;;;;;;13.62;5.68;;;;;;;17.07;72.08;98838.86;395935;101;1984739;-72
2021/06/09 02:14:51;;;;;;;9.02;4.83;;;;;;;16.95;71.97;98843.73;375591;105;1960722;-71
2021/06/09 02:16:05;;;;;;;9.11;5.65;;;;;;;17.06;72.34;98842.66;397975;104;1984776;-72
2021/06/09 02:17:11;;;;;;;9.46;4.98;;;;;;;16.95;72.22;98844.54;332953;105;2497860;-72
2021/06/09 02:18:35;;;;;;;9.59;5.25;;;;;;;16.95;72.29;98839.08;377921;106;1960785;-72
2021/06/09 02:19:48;;;;;;;8.14;5.33;;;;;;;17.12;72.19;98844.30;395702;104;1963749;-72
2021/06/09 02:20:56;;;;;;;6.85;5.06;;;;;;;17.00;72.02;98844.56;374713;105;1967831;-72
2021/06/09 02:22:08;;;;;;;8.68;5.01;;;;;;;17.12;72.20;98842.42;387516;106;1984961;-72
2021/06/09 02:23:15;;;;;;;8.36;5.57;;;;;;;17.01;72.10;98848.92;357576;110;1962049;-73
2021/06/09 02:24:39;;;;;;;8.59;5.22;;;;;;;17.00;72.09;98850.02;360037;110;1962020;-73
2021/06/09 02:25:53;;;;;;;8.29;5.60;;;;;;;17.11;72.12;98835.30;394128;104;1985882;-72
2021/06/09 02:26:59;;;;;;;7.54;5.32;;;;;;;17.01;72.19;98834.46;334516;106;2717045;-74
2021/06/09 02:28:11;;;;;;;7.96;5.50;;;;;;;17.12;72.29;98838.85;385632;106;2072016;-72
2021/06/09 02:29:17;;;;;;;8.11;5.45;;;;;;;17.03;72.05;98837.75;368403;108;1962048;-72
2021/06/09 02:30:42;;;;;;;7.52;5.34;;;;;;;17.02;72.21;98838.84;295875;108;2435987;-72
2021/06/09 02:32:01;;;;;;;7.34;5.42;;;;;;;17.11;72.23;98838.03;336279;108;2790989;-72
2021/06/09 02:33:07;;;;;;;10.94;5.87;;;;;;;17.07;72.08;98838.86;332823;111;1973973;-72
2021/06/09 02:34:21;;;;;;;9.37;5.13;;;;;;;17.21;72.08;98836.44;398869;104;1985909;-71
2021/06/09 02:35:27;;;;;;;7.78;5.14;;;;;;;17.11;71.89;98832.58;380496;105;1961955;-72
2021/06/09 02:36:52;;;;;;;8.97;5.44;;;;;;;17.15;71.61;98843.80;378588;105;1962914;-72
2021/06/09 02:37:58;;;;;;;8.68;5.54;;;;;;;17.13;71.67;98838.59;346548;107;2864092;-71
2021/06/09 02:39:11;;;;;;;9.68;5.77;;;;;;;17.27;71.75;98838.08;395505;104;1985957;-72
2021/06/09 02:40:19;;;;;;;6.85;5.39;;;;;;;17.18;71.64;98836.98;372954;106;1962099;-72
2021/06/09 02:41:24;;;;;;;8.26;5.35;;;;;;;17.18;71.51;98837.80;368070;107;2873899;-72
2021/06/09 02:42:29;;;;;;;7.79;5.37;;;;;;;17.14;71.53;98815.66;368603;107;1961828;-73
2021/06/09 02:43:35;;;;;;;7.43;5.67;;;;;;;17.23;71.23;98837.80;369563;107;1961069;-72
2021/06/09 02:45:14;;;;;;;7.32;5.72;;;;;;;17.34;71.43;98827.72;392219;103;1986957;-72
2021/06/09 02:46:38;;;;;;;8.71;5.42;;;;;;;17.14;71.30;98818.39;381852;105;1963985;-71
2021/06/09 02:47:56;;;;;;;8.31;5.93;;;;;;;17.36;71.30;98829.09;394539;103;1986067;-70
2021/06/09 02:49:04;;;;;;;8.22;6.58;;;;;;;17.30;71.22;98826.61;373380;106;1963033;-72
2021/06/09 02:50:18;;;;;;;8.13;5.59;;;;;;;17.45;71.14;98831.28;396269;103;1985953;-72
2021/06/09 02:51:28;;;;;;;7.97;5.91;;;;;;;17.36;71.10;98823.64;338546;103;2666010;-72
2021/06/09 02:52:50;;;;;;;8.72;6.48;;;;;;;17.38;70.88;98830.72;377255;106;1963035;-72
2021/06/09 02:54:11;;;;;;;8.57;6.58;;;;;;;17.51;70.95;98828.27;394883;104;1985959;-73
2021/06/09 02:55:39;;;;;;;7.93;5.76;;;;;;;17.43;70.75;98828.81;373947;105;1963883;-73
2021/06/09 02:57:04;;;;;;;9.88;7.16;;;;;;;17.57;70.59;98831.83;359493;106;2024987;-72
2021/06/09 02:58:24;;;;;;;10.82;8.41;;;;;;;17.59;70.61;98830.46;351955;104;2730952;-72
2021/06/09 02:59:51;;;;;;;9.82;7.08;;;;;;;17.51;70.63;98836.47;303360;107;2424988;-72
2021/06/09 03:01:40;;;;;;;9.02;6.54;;;;;;;17.63;70.42;98838.95;392507;104;1987041;-72
2021/06/09 03:03:22;;;;;;;9.61;7.19;;;;;;;17.50;70.26;98840.30;317420;109;2240130;-71
2021/06/09 03:04:53;;;;;;;8.24;6.22;;;;;;;17.61;70.50;98840.31;340192;104;2325903;-72
2021/06/09 03:06:03;;;;;;;10.79;6.38;;;;;;;17.47;70.44;98851.77;373291;106;1962024;-72
2021/06/09 03:07:36;;;;;;;7.68;6.19;;;;;;;17.45;70.65;98843.02;354709;107;1962050;-72
2021/06/09 03:09:17;;;;;;;10.97;6.37;;;;;;;17.58;70.69;98847.14;415090;99;1987835;-71
2021/06/09 03:10:36;;;;;;;9.45;6.29;;;;;;;17.57;70.79;98846.32;391788;104;1987060;-72
2021/06/09 03:12:19;;;;;;;8.33;6.04;;;;;;;17.50;70.64;98842.22;375294;107;1962006;-71
2021/06/09 03:15:12;;;;;;;8.10;6.39;;;;;;;17.49;70.77;98851.48;382223;103;1962013;-73
2021/06/09 03:16:30;;;;;;;9.83;6.87;;;;;;;17.65;70.82;98847.70;385227;106;1986978;-73
2021/06/09 03:17:55;;;;;;;9.58;6.31;;;;;;;17.68;70.66;98840.88;395537;103;1987941;-72
2021/06/09 03:19:23;;;;;;;8.47;6.08;;;;;;;17.59;70.57;98841.38;373821;107;1962010;-73
2021/06/09 03:21:01;;;;;;;8.91;6.39;;;;;;;17.74;70.78;98846.05;342016;108;2704006;-72
2021/06/09 03:22:16;;;;;;;8.92;6.09;;;;;;;17.67;70.51;98842.76;317692;112;2621939;-74
2021/06/09 03:23:54;;;;;;;9.79;6.36;;;;;;;17.82;70.58;98847.45;395448;104;1985950;-72
2021/06/09 03:25:06;;;;;;;10.91;6.53;;;;;;;17.90;70.38;98844.16;393893;103;1987011;-72
2021/06/09 03:27:07;;;;;;;9.00;6.15;;;;;;;17.82;70.23;98847.45;375967;106;1962004;-72
2021/06/09 03:28:25;;;;;;;10.01;6.99;;;;;;;17.92;70.39;98847.45;375755;109;1986062;-72
2021/06/09 03:29:43;;;;;;;8.10;6.26;;;;;;;17.94;70.43;98848.00;386582;106;1986022;-72
2021/06/09 03:31:10;;;;;;;11.22;6.65;;;;;;;17.85;70.27;98846.89;364698;110;1962079;-72
2021/06/09 03:32:35;;;;;;;9.16;6.44;;;;;;;17.89;70.42;98856.20;350305;109;1962033;-72
2021/06/09 03:33:51;;;;;;;9.14;5.91;;;;;;;18.06;70.17;98850.44;389797;106;1985892;-72
2021/06/09 03:35:05;;;;;;;10.81;6.83;;;;;;;17.99;70.01;98848.00;366041;109;1962993;-72
2021/06/09 03:36:34;;;;;;;7.79;5.66;;;;;;;18.12;70.15;98843.86;372931;104;1986938;-73
2021/06/09 03:37:42;;;;;;;11.06;6.45;;;;;;;18.05;69.75;98846.08;377554;106;1962050;-72
2021/06/09 03:39:07;;;;;;;10.91;7.05;;;;;;;18.06;69.92;98844.97;378956;106;1961969;-72
2021/06/09 03:40:20;;;;;;;8.94;6.62;;;;;;;18.08;69.67;98850.17;342221;106;2876986;-72
2021/06/09 03:41:46;;;;;;;13.13;7.59;;;;;;;18.22;69.77;98853.97;393967;104;1987067;-73
2021/06/09 03:42:54;;;;;;;9.65;7.06;;;;;;;18.00;69.87;98835.15;372855;106;1961931;-74
2021/06/09 03:44:09;;;;;;;10.96;7.96;;;;;;;18.13;70.13;98850.17;392701;104;1986071;-73
2021/06/09 03:45:16;;;;;;;10.04;7.55;;;;;;;17.96;70.34;98858.64;350242;106;1968080;-73
2021/06/09 03:46:23;;;;;;;11.13;7.59;;;;;;;17.89;70.25;98852.62;376851;106;1961943;-74
2021/06/09 03:47:32;;;;;;;9.77;7.20;;;;;;;17.81;70.87;98854.02;375483;107;1962086;-74
2021/06/09 03:48:45;;;;;;;10.94;6.76;;;;;;;17.93;70.92;98850.99;397736;103;1987964;-74
2021/06/09 03:49:53;;;;;;;9.65;7.53;;;;;;;17.82;70.84;98852.91;378953;105;1962002;-73
2021/06/09 03:51:03;;;;;;;9.23;5.92;;;;;;;17.82;71.31;98857.56;380482;105;1962039;-72
2021/06/09 03:52:17;;;;;;;11.26;7.54;;;;;;;17.97;71.56;98846.63;396756;103;1985849;-72
2021/06/09 03:53:24;;;;;;;10.76;6.12;;;;;;;17.92;71.17;98847.45;343116;107;2860898;-73
2021/06/09 03:54:42;;;;;;;12.04;6.98;;;;;;;18.06;71.33;98852.36;386966;106;1985963;-72
2021/06/09 03:55:50;;;;;;;10.93;6.56;;;;;;;18.00;71.13;98852.36;368121;108;1962006;-73
2021/06/09 03:57:24;;;;;;;9.95;6.26;;;;;;;18.21;71.38;98863.27;414898;99;1987026;-73
2021/06/09 03:58:31;;;;;;;9.81;6.34;;;;;;;18.14;70.97;98855.34;380271;102;2883985;-73
2021/06/09 03:59:56;;;;;;;9.29;6.68;;;;;;;18.23;70.87;98856.44;392007;103;1961973;-73
2021/06/09 04:01:14;;;;;;;9.61;7.21;;;;;;;18.47;70.79;98853.11;389986;106;1985882;-73
2021/06/09 04:02:22;;;;;;;11.28;6.58;;;;;;;18.40;70.62;98855.31;369795;107;1962068;-73
2021/06/09 04:03:37;;;;;;;9.24;6.59;;;;;;;18.58;70.28;98851.98;394372;104;1987138;-72
2021/06/09 04:04:46;;;;;;;11.15;6.34;;;;;;;18.52;70.26;98853.06;375411;107;1963002;-72
2021/06/09 04:06:13;;;;;;;8.72;6.49;;;;;;;18.58;70.09;98856.63;362822;111;1960968;-73
2021/06/09 04:07:28;;;;;;;9.04;6.22;;;;;;;18.75;69.87;98859.88;393310;104;1985928;-72
2021/06/09 04:08:37;;;;;;;8.52;6.17;;;;;;;18.71;69.68;98866.14;357362;107;2857015;-73
2021/06/09 04:09:51;;;;;;;10.64;7.31;;;;;;;18.88;69.51;98856.53;360151;104;2561020;-73
2021/06/09 04:10:59;;;;;;;12.09;8.01;;;;;;;18.79;69.33;98863.70;375117;106;1961991;-73
2021/06/09 04:12:23;;;;;;;12.76;8.02;;;;;;;18.81;69.27;98857.93;374308;107;1960708;-74
2021/06/09 04:13:38;;;;;;;15.27;9.51;;;;;;;18.91;69.53;98866.10;360086;104;2544057;-73
2021/06/09 04:14:47;;;;;;;15.03;8.01;;;;;;;18.81;69.41;98866.14;375403;103;1969048;-74
2021/06/09 04:16:02;;;;;;;9.56;7.09;;;;;;;18.88;69.05;98863.93;394431;104;1984793;-74
2021/06/09 04:17:08;;;;;;;9.97;7.85;;;;;;;18.70;68.83;98869.98;376632;106;1961931;-74
2021/06/09 04:18:32;;;;;;;13.02;7.84;;;;;;;18.59;69.15;98869.20;339972;106;2000912;-73
2021/06/09 04:19:47;;;;;;;12.96;8.37;;;;;;;18.62;69.48;98866.72;371567;109;1961923;-73
2021/06/09 04:20:54;;;;;;;10.89;8.64;;;;;;;18.46;69.20;98868.67;355501;113;1962094;-74
2021/06/09 04:22:02;;;;;;;10.47;8.41;;;;;;;18.38;69.92;98877.45;359277;111;1962097;-73
2021/06/09 04:23:14;;;;;;;10.21;8.01;;;;;;;18.39;70.67;98864.59;392463;103;1986090;-72
2021/06/09 04:24:20;;;;;;;11.37;8.55;;;;;;;18.26;70.23;98873.36;373349;105;1962019;-73
2021/06/09 04:25:33;;;;;;;10.92;7.70;;;;;;;18.32;70.73;98878.56;347190;103;2809938;-72
2021/06/09 04:26:40;;;;;;;11.29;7.87;;;;;;;18.20;70.83;98875.28;372004;106;1963836;-74
2021/06/09 04:28:07;;;;;;;11.76;7.43;;;;;;;18.27;70.65;98885.95;351975;109;1962043;-72
2021/06/09 04:29:21;;;;;;;10.24;7.72;;;;;;;18.48;70.78;98870.33;363615;104;2567948;-73
2021/06/09 04:30:28;;;;;;;11.55;7.66;;;;;;;18.43;70.74;98866.50;375628;105;1961813;-73
2021/06/09 04:31:41;;;;;;;11.17;7.47;;;;;;;18.64;70.51;98870.00;334068;104;2358270;-73
2021/06/09 04:32:55;;;;;;;9.54;7.60;;;;;;;18.65;70.24;98868.08;356966;107;1965100;-73
2021/06/09 04:34:07;;;;;;;10.72;7.57;;;;;;;18.81;70.30;98872.42;387056;106;1986024;-73
2021/06/09 04:35:13;;;;;;;9.74;7.63;;;;;;;18.78;70.08;98872.98;364285;108;1961880;-73
2021/06/09 04:36:37;;;;;;;10.36;7.32;;;;;;;18.85;69.87;98872.70;342991;111;1962067;-74
2021/06/09 04:37:43;;;;;;;12.48;9.13;;;;;;;18.95;69.59;98872.67;342314;113;1962008;-73
2021/06/09 04:38:49;;;;;;;10.68;7.67;;;;;;;19.04;69.42;98872.89;349081;112;1962076;-74
2021/06/09 04:40:03;;;;;;;10.19;7.97;;;;;;;19.23;69.18;98871.14;397533;103;1962101;-75
2021/06/09 04:41:09;;;;;;;9.29;8.14;;;;;;;19.21;68.81;98872.52;316681;105;2237003;-72
2021/06/09 04:42:24;;;;;;;16.36;9.68;;;;;;;19.32;68.83;98866.72;349982;104;2670963;-74
2021/06/09 04:43:30;;;;;;;12.02;8.61;;;;;;;19.24;68.72;98874.72;363500;107;1963862;-74
2021/06/09 04:44:45;;;;;;;13.23;9.43;;;;;;;19.33;68.77;98867.53;385387;104;2884044;-74
2021/06/09 04:45:51;;;;;;;10.59;8.53;;;;;;;19.22;68.75;98866.78;375622;107;1961971;-75
2021/06/09 04:46:57;;;;;;;12.22;9.26;;;;;;;19.24;68.63;98871.98;373889;107;1962072;-74
2021/06/09 04:48:12;;;;;;;12.79;8.36;;;;;;;19.34;68.65;98869.16;323437;106;2310942;-74
2021/06/09 04:49:33;;;;;;;13.30;8.83;;;;;;;19.36;68.26;98866.97;380511;99;2459077;-72
2021/06/09 04:50:42;;;;;;;13.84;9.26;;;;;;;19.26;68.21;98872.50;370154;103;1961992;-74
2021/06/09 04:51:48;;;;;;;12.83;8.99;;;;;;;19.26;68.55;98867.02;390209;101;1962928;-74
2021/06/09 04:53:10;;;;;;;18.54;10.17;;;;;;;19.38;68.43;98878.46;385256;103;2880969;-73
2021/06/09 04:54:16;;;;;;;10.94;8.43;;;;;;;19.24;68.48;98871.98;312374;106;2233072;-73
2021/06/09 04:55:35;;;;;;;11.07;9.47;;;;;;;19.34;69.09;98871.90;394543;104;1986910;-73
2021/06/09 04:56:41;;;;;;;13.09;9.04;;;;;;;19.22;68.52;98876.92;301234;107;2326860;-74
2021/06/09 04:58:05;;;;;;;11.55;8.72;;;;;;;19.20;68.64;98871.70;370190;108;1961933;-74
2021/06/09 04:59:17;;;;;;;12.78;9.67;;;;;;;19.33;68.94;98867.53;379555;107;1963078;-74
2021/06/09 05:00:24;;;;;;;11.53;9.06;;;;;;;19.22;68.84;98871.44;357073;111;1966022;-75
2021/06/09 05:01:30;;;;;;;12.52;8.63;;;;;;;19.22;68.70;98865.97;356655;113;1961895;-75
2021/06/09 05:02:37;;;;;;;11.02;9.17;;;;;;;19.23;68.61;98868.41;350821;113;1961935;-74
2021/06/09 05:03:51;;;;;;;12.12;9.34;;;;;;;19.35;68.54;98875.48;393349;104;1986971;-73
2021/06/09 05:04:58;;;;;;;11.41;8.60;;;;;;;19.24;68.70;98866.51;326128;107;2826043;-73
2021/06/09 05:06:03;;;;;;;14.06;8.84;;;;;;;19.24;68.81;98866.51;350676;107;1962016;-74
2021/06/09 05:07:15;;;;;;;11.99;9.42;;;;;;;19.37;68.61;98870.52;395954;104;1987081;-74
2021/06/09 05:08:20;;;;;;;11.22;9.07;;;;;;;19.27;68.61;98874.16;375523;106;1961971;-74
2021/06/09 05:09:26;;;;;;;14.20;9.34;;;;;;;19.28;68.50;98868.38;377267;106;1962024;-73
2021/06/09 05:10:40;;;;;;;11.13;9.05;;;;;;;19.40;68.57;98867.23;374954;106;1973094;-74
2021/06/09 05:11:49;;;;;;;11.66;9.22;;;;;;;19.30;68.48;98871.66;363973;110;1964020;-73
2021/06/09 05:13:17;;;;;;;12.31;9.55;;;;;;;19.47;68.70;98870.45;387288;106;1985966;-74
2021/06/09 05:14:30;;;;;;;12.84;9.42;;;;;;;19.40;68.38;98876.27;365730;109;1961903;-74
2021/06/09 05:15:39;;;;;;;13.64;10.01;;;;;;;19.45;68.43;98875.39;365158;109;1961981;-76
2021/06/09 05:16:54;;;;;;;15.27;10.19;;;;;;;19.59;68.16;98870.94;387756;106;1985946;-76
2021/06/09 05:18:04;;;;;;;13.07;9.61;;;;;;;19.51;68.15;98874.28;298386;108;2341037;-76
2021/06/09 05:19:26;;;;;;;13.26;9.50;;;;;;;19.65;68.44;98883.48;401300;101;1985905;-77
2021/06/09 05:20:36;;;;;;;14.68;10.43;;;;;;;19.55;68.36;98884.39;382711;105;1962799;-75
2021/06/09 05:21:54;;;;;;;13.97;10.41;;;;;;;19.74;68.42;98883.72;329538;103;2339027;-76
2021/06/09 05:23:09;;;;;;;13.43;9.93;;;;;;;19.67;68.18;98885.98;373116;106;1962988;-76
2021/06/09 05:24:29;;;;;;;14.12;9.84;;;;;;;19.83;67.98;98889.43;385660;106;1987018;-75
2021/06/09 05:25:37;;;;;;;12.69;9.66;;;;;;;19.74;68.09;98886.46;364299;109;1960727;-74
2021/06/09 05:26:44;;;;;;;14.27;10.26;;;;;;;19.76;67.94;98884.26;362735;110;1962016;-74
2021/06/09 05:27:59;;;;;;;11.97;10.13;;;;;;;19.89;67.83;98888.28;366574;104;2441122;-76
2021/06/09 05:29:08;;;;;;;10.93;8.93;;;;;;;19.33;67.31;98819.05;368258;108;1963046;-75
2021/06/09 05:30:41;;;;;;;12.19;9.58;;;;;;;19.87;67.57;98888.58;386992;106;1986822;-75
2021/06/09 05:31:49;;;;;;;14.73;10.13;;;;;;;19.78;67.75;98886.73;322458;108;2767911;-76
2021/06/09 05:33:13;;;;;;;11.43;8.78;;;;;;;19.79;67.84;98891.91;313967;109;2132966;-75
2021/06/09 05:34:26;;;;;;;11.82;9.51;;;;;;;19.91;67.28;98892.38;389493;104;2071776;-76
2021/06/09 05:35:32;;;;;;;11.75;9.28;;;;;;;19.80;67.22;98892.75;376358;105;1963058;-76
2021/06/09 05:36:39;;;;;;;13.37;9.54;;;;;;;19.83;67.27;98892.17;333851;107;2691945;-75
2021/06/09 05:37:51;;;;;;;13.79;8.93;;;;;;;19.97;67.29;98884.92;392241;104;1962077;-76
2021/06/09 05:38:58;;;;;;;12.59;9.27;;;;;;;19.90;67.09;98898.13;376271;107;1969862;-76
2021/06/09 05:40:12;;;;;;;12.78;9.17;;;;;;;20.03;67.79;98888.43;393674;104;1964995;-76